sensor_id;sensor_type;location;lat;lon;timestamp;pressure;altitude;pressure_sealevel;temperature
63297;BMP280;49419;51.716;-4.948;2022-07-10T00:04:10;102627.81;;;18.38
63297;BMP280;49419;51.716;-4.948;2022-07-10T00:06:45;102634.69;;;18.36
63297;BMP280;49419;51.716;-4.948;2022-07-10T00:09:37;102635.56;;;18.37
63297;BMP280;49419;51.716;-4.948;2022-07-10T00:12:07;102637.34;;;18.38
63297;BMP280;49419;51.716;-4.948;2022-07-10T00:15:14;102630.34;;;18.37
63297;BMP280;49419;51.716;-4.948;2022-07-10T00:17:53;102632.16;;;18.38
63297;BMP280;49419;51.716;-4.948;2022-07-10T00:20:36;102634.69;;;18.36
63297;BMP280;49419;51.716;-4.948;2022-07-10T00:23:22;102639.09;;;18.39
63297;BMP280;49419;51.716;-4.948;2022-07-10T00:26:12;102632.16;;;18.38
63297;BMP280;49419;51.716;-4.948;2022-07-10T00:28:52;102620.72;;;18.35
63297;BMP280;49419;51.716;-4.948;2022-07-10T00:34:33;102623.16;;;18.30
63297;BMP280;49419;51.716;-4.948;2022-07-10T00:37:22;102629.22;;;18.29
63297;BMP280;49419;51.716;-4.948;2022-07-10T00:43:21;102625.06;;;18.34
63297;BMP280;49419;51.716;-4.948;2022-07-10T00:52:38;102612.34;;;18.18
63297;BMP280;49419;51.716;-4.948;2022-07-10T00:55:40;102613.88;;;18.13
63297;BMP280;49419;51.716;-4.948;2022-07-10T01:00:45;102606.72;;;18.06
63297;BMP280;49419;51.716;-4.948;2022-07-10T01:38:57;102601.53;;;18.06
63297;BMP280;49419;51.716;-4.948;2022-07-10T02:01:00;102583.56;;;17.91
63297;BMP280;49419;51.716;-4.948;2022-07-10T02:13:14;102578.38;;;17.91
63297;BMP280;49419;51.716;-4.948;2022-07-10T02:27:00;102556.00;;;17.71
63297;BMP280;49419;51.716;-4.948;2022-07-10T02:30:55;102557.69;;;17.70
63297;BMP280;49419;51.716;-4.948;2022-07-10T02:33:41;102541.91;;;17.65
63297;BMP280;49419;51.716;-4.948;2022-07-10T02:40:13;102555.75;;;17.65
63297;BMP280;49419;51.716;-4.948;2022-07-10T02:43:16;102555.72;;;17.64
63297;BMP280;49419;51.716;-4.948;2022-07-10T03:10:05;102551.31;;;17.61
63297;BMP280;49419;51.716;-4.948;2022-07-10T03:16:02;102533.84;;;17.57
63297;BMP280;49419;51.716;-4.948;2022-07-10T03:22:07;102532.13;;;17.58
63297;BMP280;49419;51.716;-4.948;2022-07-10T03:49:01;102517.56;;;17.39
63297;BMP280;49419;51.716;-4.948;2022-07-10T05:19:35;102480.34;;;18.87
63297;BMP280;49419;51.716;-4.948;2022-07-10T05:37:14;102498.63;;;19.45
63297;BMP280;49419;51.716;-4.948;2022-07-10T05:40:37;102490.28;;;19.56
63297;BMP280;49419;51.716;-4.948;2022-07-10T05:46:18;102480.41;;;19.74
63297;BMP280;49419;51.716;-4.948;2022-07-10T05:52:52;102481.84;;;19.94
63297;BMP280;49419;51.716;-4.948;2022-07-10T05:55:19;102481.13;;;19.99
63297;BMP280;49419;51.716;-4.948;2022-07-10T05:58:01;102476.09;;;20.06
63297;BMP280;49419;51.716;-4.948;2022-07-10T06:00:55;102486.91;;;20.21
63297;BMP280;49419;51.716;-4.948;2022-07-10T06:03:55;102483.78;;;20.34
63297;BMP280;49419;51.716;-4.948;2022-07-10T06:06:46;102475.22;;;20.39
63297;BMP280;49419;51.716;-4.948;2022-07-10T06:10:10;102486.00;;;20.53
63297;BMP280;49419;51.716;-4.948;2022-07-10T06:12:48;102479.28;;;20.61
63297;BMP280;49419;51.716;-4.948;2022-07-10T06:15:25;102482.94;;;20.68
63297;BMP280;49419;51.716;-4.948;2022-07-10T06:18:15;102476.91;;;20.71
63297;BMP280;49419;51.716;-4.948;2022-07-10T06:20:57;102487.56;;;20.80
63297;BMP280;49419;51.716;-4.948;2022-07-10T06:23:30;102474.53;;;20.81
63297;BMP280;49419;51.716;-4.948;2022-07-10T06:26:01;102491.25;;;20.89
63297;BMP280;49419;51.716;-4.948;2022-07-10T06:28:39;102481.81;;;20.94
63297;BMP280;49419;51.716;-4.948;2022-07-10T06:33:40;102475.94;;;21.04
63297;BMP280;49419;51.716;-4.948;2022-07-10T06:36:26;102484.03;;;21.16
63297;BMP280;49419;51.716;-4.948;2022-07-10T06:39:01;102482.28;;;21.15
63297;BMP280;49419;51.716;-4.948;2022-07-10T06:41:33;102480.72;;;21.23
63297;BMP280;49419;51.716;-4.948;2022-07-10T06:44:04;102473.84;;;21.27
63297;BMP280;49419;51.716;-4.948;2022-07-10T06:46:43;102475.66;;;21.30
63297;BMP280;49419;51.716;-4.948;2022-07-10T06:49:52;102484.66;;;21.42
63297;BMP280;49419;51.716;-4.948;2022-07-10T06:52:31;102487.25;;;21.42
63297;BMP280;49419;51.716;-4.948;2022-07-10T06:55:20;102491.56;;;21.39
63297;BMP280;49419;51.716;-4.948;2022-07-10T06:57:59;102489.91;;;21.44
63297;BMP280;49419;51.716;-4.948;2022-07-10T07:01:03;102496.97;;;21.49
63297;BMP280;49419;51.716;-4.948;2022-07-10T07:03:34;102478.94;;;21.62
63297;BMP280;49419;51.716;-4.948;2022-07-10T07:06:04;102474.88;;;21.75
63297;BMP280;49419;51.716;-4.948;2022-07-10T07:08:34;102481.94;;;21.80
63297;BMP280;49419;51.716;-4.948;2022-07-10T07:11:07;102466.34;;;21.86
63297;BMP280;49419;51.716;-4.948;2022-07-10T07:13:40;102461.94;;;21.84
63297;BMP280;49419;51.716;-4.948;2022-07-10T07:16:07;102481.16;;;21.86
63297;BMP280;49419;51.716;-4.948;2022-07-10T07:18:34;102474.28;;;21.91
63297;BMP280;49419;51.716;-4.948;2022-07-10T07:21:05;102467.31;;;21.90
63297;BMP280;49419;51.716;-4.948;2022-07-10T07:24:07;102466.50;;;21.93
63297;BMP280;49419;51.716;-4.948;2022-07-10T07:26:47;102470.16;;;22.03
63297;BMP280;49419;51.716;-4.948;2022-07-10T07:29:27;102463.13;;;22.00
63297;BMP280;49419;51.716;-4.948;2022-07-10T07:32:19;102476.28;;;22.05
63297;BMP280;49419;51.716;-4.948;2022-07-10T07:34:45;102466.91;;;22.14
63297;BMP280;49419;51.716;-4.948;2022-07-10T07:37:46;102471.31;;;22.17
63297;BMP280;49419;51.716;-4.948;2022-07-10T07:40:47;102460.84;;;22.17
63297;BMP280;49419;51.716;-4.948;2022-07-10T07:43:40;102475.72;;;22.19
63297;BMP280;49419;51.716;-4.948;2022-07-10T07:49:20;102472.31;;;22.25
63297;BMP280;49419;51.716;-4.948;2022-07-10T08:00:24;102483.94;;;22.40
63297;BMP280;49419;51.716;-4.948;2022-07-10T08:08:13;102477.06;;;22.48
63297;BMP280;49419;51.716;-4.948;2022-07-10T08:10:42;102474.59;;;22.55
63297;BMP280;49419;51.716;-4.948;2022-07-10T08:33:57;102469.13;;;22.96
63297;BMP280;49419;51.716;-4.948;2022-07-10T08:36:38;102466.47;;;22.93
63297;BMP280;49419;51.716;-4.948;2022-07-10T08:39:21;102471.75;;;22.96
63297;BMP280;49419;51.716;-4.948;2022-07-10T09:03:07;102450.72;;;23.56
63297;BMP280;49419;51.716;-4.948;2022-07-10T09:05:41;102447.34;;;23.64
63297;BMP280;49419;51.716;-4.948;2022-07-10T09:08:28;102444.81;;;23.72
63297;BMP280;49419;51.716;-4.948;2022-07-10T09:11:21;102450.97;;;23.75
63297;BMP280;49419;51.716;-4.948;2022-07-10T09:14:02;102450.03;;;23.70
63297;BMP280;49419;51.716;-4.948;2022-07-10T09:19:22;102434.19;;;23.60
63297;BMP280;49419;51.716;-4.948;2022-07-10T09:22:01;102453.50;;;23.68
63297;BMP280;49419;51.716;-4.948;2022-07-10T09:24:44;102445.63;;;23.68
63297;BMP280;49419;51.716;-4.948;2022-07-10T09:27:29;102432.50;;;23.65
63297;BMP280;49419;51.716;-4.948;2022-07-10T09:30:12;102441.28;;;23.70
63297;BMP280;49419;51.716;-4.948;2022-07-10T09:32:54;102443.06;;;23.71
63297;BMP280;49419;51.716;-4.948;2022-07-10T09:36:13;102435.19;;;23.69
63297;BMP280;49419;51.716;-4.948;2022-07-10T09:38:52;102444.00;;;23.77
63297;BMP280;49419;51.716;-4.948;2022-07-10T09:44:26;102433.66;;;23.90
63297;BMP280;49419;51.716;-4.948;2022-07-10T09:52:23;102415.41;;;24.04
63297;BMP280;49419;51.716;-4.948;2022-07-10T09:57:48;102420.88;;;24.27
63297;BMP280;49419;51.716;-4.948;2022-07-10T10:05:55;102422.91;;;24.59
63297;BMP280;49419;51.716;-4.948;2022-07-10T10:08:35;102419.44;;;24.69
63297;BMP280;49419;51.716;-4.948;2022-07-10T10:11:29;102423.00;;;24.80
63297;BMP280;49419;51.716;-4.948;2022-07-10T10:13:59;102409.06;;;24.87
63297;BMP280;49419;51.716;-4.948;2022-07-10T10:16:38;102398.63;;;24.99
63297;BMP280;49419;51.716;-4.948;2022-07-10T10:19:10;102387.31;;;25.07
63297;BMP280;49419;51.716;-4.948;2022-07-10T10:21:57;102393.44;;;25.14
63297;BMP280;49419;51.716;-4.948;2022-07-10T10:24:40;102392.59;;;25.18
63297;BMP280;49419;51.716;-4.948;2022-07-10T10:48:12;102392.81;;;26.50
63297;BMP280;49419;51.716;-4.948;2022-07-10T10:50:51;102387.53;;;26.58
63297;BMP280;49419;51.716;-4.948;2022-07-10T10:53:29;102389.22;;;26.71
63297;BMP280;49419;51.716;-4.948;2022-07-10T10:59:10;102390.16;;;26.53
63297;BMP280;49419;51.716;-4.948;2022-07-10T11:05:39;102377.84;;;26.58
63297;BMP280;49419;51.716;-4.948;2022-07-10T11:08:09;102380.53;;;26.48
63297;BMP280;49419;51.716;-4.948;2022-07-10T11:13:32;102377.03;;;26.36
63297;BMP280;49419;51.716;-4.948;2022-07-10T11:16:12;102365.63;;;26.46
63297;BMP280;49419;51.716;-4.948;2022-07-10T11:18:40;102371.69;;;26.59
63297;BMP280;49419;51.716;-4.948;2022-07-10T11:21:23;102349.78;;;26.54
63297;BMP280;49419;51.716;-4.948;2022-07-10T11:24:28;102366.47;;;26.55
63297;BMP280;49419;51.716;-4.948;2022-07-10T11:27:28;102355.94;;;26.52
63297;BMP280;49419;51.716;-4.948;2022-07-10T11:29:59;102349.78;;;26.51
63297;BMP280;49419;51.716;-4.948;2022-07-10T11:32:31;102349.81;;;26.49
63297;BMP280;49419;51.716;-4.948;2022-07-10T11:34:59;102352.47;;;26.38
63297;BMP280;49419;51.716;-4.948;2022-07-10T11:37:28;102363.00;;;26.34
63297;BMP280;49419;51.716;-4.948;2022-07-10T11:40:22;102355.97;;;26.33
63297;BMP280;49419;51.716;-4.948;2022-07-10T11:43:21;102349.84;;;26.34
63297;BMP280;49419;51.716;-4.948;2022-07-10T11:52:32;102333.13;;;26.51
63297;BMP280;49419;51.716;-4.948;2022-07-10T11:55:34;102340.97;;;26.64
63297;BMP280;49419;51.716;-4.948;2022-07-10T12:01:04;102341.81;;;26.88
63297;BMP280;49419;51.716;-4.948;2022-07-10T12:04:06;102339.09;;;27.02
63297;BMP280;49419;51.716;-4.948;2022-07-10T12:10:26;102327.63;;;27.12
63297;BMP280;49419;51.716;-4.948;2022-07-10T12:13:08;102331.91;;;27.38
63297;BMP280;49419;51.716;-4.948;2022-07-10T12:19:40;102313.88;;;27.94
63297;BMP280;49419;51.716;-4.948;2022-07-10T12:22:26;102303.22;;;28.09
63297;BMP280;49419;51.716;-4.948;2022-07-10T12:25:19;102311.97;;;28.14
63297;BMP280;49419;51.716;-4.948;2022-07-10T12:28:17;102321.69;;;28.08
63297;BMP280;49419;51.716;-4.948;2022-07-10T12:31:09;102318.19;;;28.09
63297;BMP280;49419;51.716;-4.948;2022-07-10T12:39:08;102307.06;;;28.62
63297;BMP280;49419;51.716;-4.948;2022-07-10T12:42:11;102309.78;;;28.54
63297;BMP280;49419;51.716;-4.948;2022-07-10T12:44:46;102305.38;;;28.56
63297;BMP280;49419;51.716;-4.948;2022-07-10T12:47:24;102301.13;;;28.42
63297;BMP280;49419;51.716;-4.948;2022-07-10T12:50:06;102302.88;;;28.40
63297;BMP280;49419;51.716;-4.948;2022-07-10T12:52:41;102288.00;;;28.33
63297;BMP280;49419;51.716;-4.948;2022-07-10T12:56:11;102294.91;;;28.43
63297;BMP280;49419;51.716;-4.948;2022-07-10T12:59:24;102292.28;;;28.45
63297;BMP280;49419;51.716;-4.948;2022-07-10T13:02:33;102284.38;;;28.43
63297;BMP280;49419;51.716;-4.948;2022-07-10T13:19:31;102265.88;;;28.45
63297;BMP280;49419;51.716;-4.948;2022-07-10T13:21:57;102273.75;;;28.47
63297;BMP280;49419;51.716;-4.948;2022-07-10T13:24:31;102256.22;;;28.42
63297;BMP280;49419;51.716;-4.948;2022-07-10T13:27:09;102262.41;;;28.40
63297;BMP280;49419;51.716;-4.948;2022-07-10T13:30:04;102265.84;;;28.47
63297;BMP280;49419;51.716;-4.948;2022-07-10T13:32:38;102258.69;;;28.58
63297;BMP280;49419;51.716;-4.948;2022-07-10T13:35:31;102258.47;;;28.76
63297;BMP280;49419;51.716;-4.948;2022-07-10T13:38:10;102257.28;;;28.98
63297;BMP280;49419;51.716;-4.948;2022-07-10T13:40:39;102264.13;;;29.13
63297;BMP280;49419;51.716;-4.948;2022-07-10T13:43:09;102252.47;;;29.26
63297;BMP280;49419;51.716;-4.948;2022-07-10T13:45:42;102246.25;;;29.30
63297;BMP280;49419;51.716;-4.948;2022-07-10T13:48:20;102259.88;;;29.59
63297;BMP280;49419;51.716;-4.948;2022-07-10T13:50:48;102251.22;;;30.00
63297;BMP280;49419;51.716;-4.948;2022-07-10T13:53:22;102253.38;;;30.69
63297;BMP280;49419;51.716;-4.948;2022-07-10T13:56:11;102249.31;;;31.67
63297;BMP280;49419;51.716;-4.948;2022-07-10T13:58:43;102239.28;;;33.29
63297;BMP280;49419;51.716;-4.948;2022-07-10T14:01:23;102230.31;;;35.23
63297;BMP280;49419;51.716;-4.948;2022-07-10T14:03:55;102227.91;;;36.76
63297;BMP280;49419;51.716;-4.948;2022-07-10T14:06:25;102238.22;;;38.07
63297;BMP280;49419;51.716;-4.948;2022-07-10T14:08:56;102219.06;;;38.94
63297;BMP280;49419;51.716;-4.948;2022-07-10T14:11:27;102226.75;;;38.99
63297;BMP280;49419;51.716;-4.948;2022-07-10T14:14:10;102228.22;;;38.26
63297;BMP280;49419;51.716;-4.948;2022-07-10T14:16:39;102221.31;;;37.55
63297;BMP280;49419;51.716;-4.948;2022-07-10T14:19:15;102220.78;;;36.94
63297;BMP280;49419;51.716;-4.948;2022-07-10T14:21:46;102225.47;;;36.52
63297;BMP280;49419;51.716;-4.948;2022-07-10T14:24:18;102227.53;;;36.28
63297;BMP280;49419;51.716;-4.948;2022-07-10T14:26:55;102229.97;;;35.93
63297;BMP280;49419;51.716;-4.948;2022-07-10T14:29:27;102223.63;;;35.95
63297;BMP280;49419;51.716;-4.948;2022-07-10T14:31:55;102215.03;;;36.46
63297;BMP280;49419;51.716;-4.948;2022-07-10T14:34:25;102213.31;;;37.71
63297;BMP280;49419;51.716;-4.948;2022-07-10T14:36:56;102202.94;;;39.39
63297;BMP280;49419;51.716;-4.948;2022-07-10T14:39:30;102207.53;;;40.38
63297;BMP280;49419;51.716;-4.948;2022-07-10T14:41:56;102203.78;;;41.22
63297;BMP280;49419;51.716;-4.948;2022-07-10T14:44:23;102203.94;;;41.33
63297;BMP280;49419;51.716;-4.948;2022-07-10T14:46:49;102206.59;;;41.21
63297;BMP280;49419;51.716;-4.948;2022-07-10T14:49:16;102199.34;;;40.95
63297;BMP280;49419;51.716;-4.948;2022-07-10T14:51:42;102200.16;;;41.09
63297;BMP280;49419;51.716;-4.948;2022-07-10T14:54:07;102194.50;;;41.40
63297;BMP280;49419;51.716;-4.948;2022-07-10T14:56:37;102198.25;;;41.63
63297;BMP280;49419;51.716;-4.948;2022-07-10T14:59:08;102199.94;;;41.12
63297;BMP280;49419;51.716;-4.948;2022-07-10T15:01:34;102177.63;;;41.24
63297;BMP280;49419;51.716;-4.948;2022-07-10T15:04:09;102183.53;;;42.06
63297;BMP280;49419;51.716;-4.948;2022-07-10T15:06:43;102176.84;;;43.42
63297;BMP280;49419;51.716;-4.948;2022-07-10T15:09:09;102177.53;;;44.57
63297;BMP280;49419;51.716;-4.948;2022-07-10T15:11:37;102182.84;;;45.93
63297;BMP280;49419;51.716;-4.948;2022-07-10T15:14:08;102167.78;;;47.08
63297;BMP280;49419;51.716;-4.948;2022-07-10T15:16:35;102181.19;;;48.03
63297;BMP280;49419;51.716;-4.948;2022-07-10T15:19:28;102177.38;;;47.77
63297;BMP280;49419;51.716;-4.948;2022-07-10T15:22:06;102168.78;;;47.63
63297;BMP280;49419;51.716;-4.948;2022-07-10T15:24:38;102168.16;;;48.16
63297;BMP280;49419;51.716;-4.948;2022-07-10T15:27:16;102166.06;;;48.36
63297;BMP280;49419;51.716;-4.948;2022-07-10T15:29:42;102151.16;;;48.40
63297;BMP280;49419;51.716;-4.948;2022-07-10T15:32:30;102162.22;;;48.29
63297;BMP280;49419;51.716;-4.948;2022-07-10T15:35:08;102155.66;;;48.23
63297;BMP280;49419;51.716;-4.948;2022-07-10T15:37:58;102136.44;;;48.60
63297;BMP280;49419;51.716;-4.948;2022-07-10T15:40:32;102149.31;;;49.11
63297;BMP280;49419;51.716;-4.948;2022-07-10T15:43:04;102140.72;;;48.89
63297;BMP280;49419;51.716;-4.948;2022-07-10T15:45:37;102148.16;;;48.34
63297;BMP280;49419;51.716;-4.948;2022-07-10T15:48:04;102148.16;;;46.86
63297;BMP280;49419;51.716;-4.948;2022-07-10T15:50:41;102141.41;;;44.89
63297;BMP280;49419;51.716;-4.948;2022-07-10T15:53:08;102136.34;;;43.76
63297;BMP280;49419;51.716;-4.948;2022-07-10T15:55:39;102135.25;;;42.98
63297;BMP280;49419;51.716;-4.948;2022-07-10T15:58:05;102142.84;;;42.46
63297;BMP280;49419;51.716;-4.948;2022-07-10T16:00:42;102131.91;;;43.41
63297;BMP280;49419;51.716;-4.948;2022-07-10T16:03:20;102128.47;;;45.34
63297;BMP280;49419;51.716;-4.948;2022-07-10T16:05:50;102122.19;;;47.11
63297;BMP280;49419;51.716;-4.948;2022-07-10T16:08:18;102120.78;;;48.45
63297;BMP280;49419;51.716;-4.948;2022-07-10T16:10:56;102118.09;;;49.40
63297;BMP280;49419;51.716;-4.948;2022-07-10T16:13:23;102124.78;;;49.88
63297;BMP280;49419;51.716;-4.948;2022-07-10T16:16:02;102116.81;;;50.20
63297;BMP280;49419;51.716;-4.948;2022-07-10T16:18:40;102116.41;;;50.96
63297;BMP280;49419;51.716;-4.948;2022-07-10T16:21:33;102116.44;;;51.83
63297;BMP280;49419;51.716;-4.948;2022-07-10T16:24:25;102116.63;;;51.26
63297;BMP280;49419;51.716;-4.948;2022-07-10T16:27:14;102102.75;;;51.04
63297;BMP280;49419;51.716;-4.948;2022-07-10T16:33:43;102111.66;;;51.69
63297;BMP280;49419;51.716;-4.948;2022-07-10T16:36:20;102104.50;;;51.68
63297;BMP280;49419;51.716;-4.948;2022-07-10T16:38:54;102107.56;;;51.73
63297;BMP280;49419;51.716;-4.948;2022-07-10T16:41:24;102096.06;;;51.86
63297;BMP280;49419;51.716;-4.948;2022-07-10T16:44:00;102101.81;;;52.14
63297;BMP280;49419;51.716;-4.948;2022-07-10T16:46:58;102107.91;;;51.62
63297;BMP280;49419;51.716;-4.948;2022-07-10T16:50:02;102094.50;;;49.31
63297;BMP280;49419;51.716;-4.948;2022-07-10T16:52:49;102092.66;;;47.82
63297;BMP280;49419;51.716;-4.948;2022-07-10T16:55:29;102088.81;;;46.72
63297;BMP280;49419;51.716;-4.948;2022-07-10T16:58:42;102091.06;;;45.49
63297;BMP280;49419;51.716;-4.948;2022-07-10T17:01:26;102088.81;;;44.06
63297;BMP280;49419;51.716;-4.948;2022-07-10T17:03:56;102094.13;;;42.24
63297;BMP280;49419;51.716;-4.948;2022-07-10T17:09:18;102093.53;;;39.14
63297;BMP280;49419;51.716;-4.948;2022-07-10T17:12:11;102085.09;;;38.30
63297;BMP280;49419;51.716;-4.948;2022-07-10T17:18:24;102082.31;;;39.65
63297;BMP280;49419;51.716;-4.948;2022-07-10T17:21:15;102074.97;;;42.04
63297;BMP280;49419;51.716;-4.948;2022-07-10T17:23:43;102063.88;;;43.92
63297;BMP280;49419;51.716;-4.948;2022-07-10T17:26:11;102062.75;;;45.82
63297;BMP280;49419;51.716;-4.948;2022-07-10T17:28:48;102056.94;;;47.49
63297;BMP280;49419;51.716;-4.948;2022-07-10T17:31:19;102049.25;;;48.25
63297;BMP280;49419;51.716;-4.948;2022-07-10T17:34:16;102058.16;;;48.89
63297;BMP280;49419;51.716;-4.948;2022-07-10T17:39:53;102050.13;;;49.97
63297;BMP280;49419;51.716;-4.948;2022-07-10T17:42:20;102035.03;;;50.51
63297;BMP280;49419;51.716;-4.948;2022-07-10T17:45:00;102055.53;;;50.63
63297;BMP280;49419;51.716;-4.948;2022-07-10T17:48:04;102044.97;;;50.68
63297;BMP280;49419;51.716;-4.948;2022-07-10T17:51:04;102043.28;;;50.90
63297;BMP280;49419;51.716;-4.948;2022-07-10T17:53:55;102041.69;;;50.57
63297;BMP280;49419;51.716;-4.948;2022-07-10T17:59:35;102053.44;;;43.98
63297;BMP280;49419;51.716;-4.948;2022-07-10T18:02:29;102048.88;;;40.38
63297;BMP280;49419;51.716;-4.948;2022-07-10T18:11:05;102053.63;;;33.63
63297;BMP280;49419;51.716;-4.948;2022-07-10T18:13:47;102050.69;;;32.42
63297;BMP280;49419;51.716;-4.948;2022-07-10T18:16:37;102051.81;;;31.45
63297;BMP280;49419;51.716;-4.948;2022-07-10T18:19:27;102053.72;;;30.71
63297;BMP280;49419;51.716;-4.948;2022-07-10T18:22:20;102058.66;;;30.11
63297;BMP280;49419;51.716;-4.948;2022-07-10T18:25:29;102061.53;;;29.56
63297;BMP280;49419;51.716;-4.948;2022-07-10T18:28:47;102071.22;;;29.11
63297;BMP280;49419;51.716;-4.948;2022-07-10T18:31:27;102073.34;;;28.88
63297;BMP280;49419;51.716;-4.948;2022-07-10T18:34:10;102073.84;;;28.55
63297;BMP280;49419;51.716;-4.948;2022-07-10T18:37:00;102058.44;;;28.26
63297;BMP280;49419;51.716;-4.948;2022-07-10T18:42:45;102074.75;;;27.87
63297;BMP280;49419;51.716;-4.948;2022-07-10T18:45:17;102073.28;;;27.66
63297;BMP280;49419;51.716;-4.948;2022-07-10T18:48:44;102057.66;;;27.45
63297;BMP280;49419;51.716;-4.948;2022-07-10T18:51:41;102079.75;;;27.32
63297;BMP280;49419;51.716;-4.948;2022-07-10T18:54:44;102068.53;;;27.13
63297;BMP280;49419;51.716;-4.948;2022-07-10T19:00:20;102063.50;;;26.84
63297;BMP280;49419;51.716;-4.948;2022-07-10T19:03:22;102064.47;;;26.72
63297;BMP280;49419;51.716;-4.948;2022-07-10T19:09:10;102055.84;;;26.50
63297;BMP280;49419;51.716;-4.948;2022-07-10T19:12:29;102060.34;;;26.34
63297;BMP280;49419;51.716;-4.948;2022-07-10T19:15:40;102063.91;;;26.21
63297;BMP280;49419;51.716;-4.948;2022-07-10T19:18:38;102051.69;;;26.02
63297;BMP280;49419;51.716;-4.948;2022-07-10T19:21:28;102049.16;;;25.90
63297;BMP280;49419;51.716;-4.948;2022-07-10T19:24:02;102058.81;;;25.84
63297;BMP280;49419;51.716;-4.948;2022-07-10T19:26:38;102051.81;;;25.76
63297;BMP280;49419;51.716;-4.948;2022-07-10T19:29:53;102063.22;;;25.69
63297;BMP280;49419;51.716;-4.948;2022-07-10T19:32:30;102051.03;;;25.53
63297;BMP280;49419;51.716;-4.948;2022-07-10T19:35:22;102053.63;;;25.47
63297;BMP280;49419;51.716;-4.948;2022-07-10T19:38:17;102051.91;;;25.40
63297;BMP280;49419;51.716;-4.948;2022-07-10T19:41:28;102046.69;;;25.27
63297;BMP280;49419;51.716;-4.948;2022-07-10T19:43:56;102044.94;;;25.20
63297;BMP280;49419;51.716;-4.948;2022-07-10T19:46:54;102041.44;;;25.11
63297;BMP280;49419;51.716;-4.948;2022-07-10T19:52:35;102040.59;;;25.00
63297;BMP280;49419;51.716;-4.948;2022-07-10T19:55:12;102041.47;;;24.90
63297;BMP280;49419;51.716;-4.948;2022-07-10T20:29:27;102049.09;;;23.85
63297;BMP280;49419;51.716;-4.948;2022-07-10T20:32:32;102043.78;;;23.75
63297;BMP280;49419;51.716;-4.948;2022-07-10T20:35:23;102035.84;;;23.63
63297;BMP280;49419;51.716;-4.948;2022-07-10T20:40:26;102059.44;;;23.58
63297;BMP280;49419;51.716;-4.948;2022-07-10T20:43:26;102043.63;;;23.48
63297;BMP280;49419;51.716;-4.948;2022-07-10T20:46:04;102057.56;;;23.46
63297;BMP280;49419;51.716;-4.948;2022-07-10T21:24:13;102054.16;;;22.50
63297;BMP280;49419;51.716;-4.948;2022-07-10T22:09:50;102079.44;;;21.79
63297;BMP280;49419;51.716;-4.948;2022-07-10T22:45:20;102072.84;;;21.43
63297;BMP280;49419;51.716;-4.948;2022-07-10T22:48:15;102071.00;;;21.36
63297;BMP280;49419;51.716;-4.948;2022-07-10T22:51:16;102061.34;;;21.33
63297;BMP280;49419;51.716;-4.948;2022-07-10T22:54:14;102071.00;;;21.36
63297;BMP280;49419;51.716;-4.948;2022-07-10T22:56:51;102070.00;;;21.29
63297;BMP280;49419;51.716;-4.948;2022-07-10T22:59:28;102052.50;;;21.23
63297;BMP280;49419;51.716;-4.948;2022-07-10T23:02:16;102055.06;;;21.20
63297;BMP280;49419;51.716;-4.948;2022-07-10T23:26:37;102067.53;;;20.86
63297;BMP280;49419;51.716;-4.948;2022-07-10T23:29:40;102059.63;;;20.81
63297;BMP280;49419;51.716;-4.948;2022-07-10T23:49:28;102065.25;;;20.57
63297;BMP280;49419;51.716;-4.948;2022-07-10T23:55:04;102050.25;;;20.45
63297;BMP280;49419;51.716;-4.948;2022-07-10T23:57:55;102050.25;;;20.45
